sensor_id;sensor_type;location;lat;lon;timestamp;temperature;humidity
39099;DHT22;24844;52.380;7.018;2023-12-20T00:00:55;6.80;99.90
39099;DHT22;24844;52.380;7.018;2023-12-20T00:03:21;6.70;99.90
39099;DHT22;24844;52.380;7.018;2023-12-20T00:05:47;6.90;99.90
39099;DHT22;24844;52.380;7.018;2023-12-20T00:08:12;6.60;99.90
39099;DHT22;24844;52.380;7.018;2023-12-20T00:10:38;6.80;99.90
39099;DHT22;24844;52.380;7.018;2023-12-20T00:13:04;6.70;99.90
39099;DHT22;24844;52.380;7.018;2023-12-20T00:15:29;6.70;99.90
39099;DHT22;24844;52.380;7.018;2023-12-20T00:17:55;6.80;99.90
39099;DHT22;24844;52.380;7.018;2023-12-20T00:20:20;6.50;99.90
39099;DHT22;24844;52.380;7.018;2023-12-20T00:22:46;6.70;99.90
39099;DHT22;24844;52.380;7.018;2023-12-20T00:25:11;6.50;99.90
39099;DHT22;24844;52.380;7.018;2023-12-20T00:27:37;6.60;99.90
39099;DHT22;24844;52.380;7.018;2023-12-20T00:30:03;6.50;99.90
39099;DHT22;24844;52.380;7.018;2023-12-20T00:32:28;6.70;99.90
39099;DHT22;24844;52.380;7.018;2023-12-20T00:34:54;6.80;99.90
39099;DHT22;24844;52.380;7.018;2023-12-20T00:37:19;6.50;99.90
39099;DHT22;24844;52.380;7.018;2023-12-20T00:39:45;6.50;99.90
39099;DHT22;24844;52.380;7.018;2023-12-20T00:42:10;6.70;99.90
39099;DHT22;24844;52.380;7.018;2023-12-20T00:44:36;6.70;99.90
39099;DHT22;24844;52.380;7.018;2023-12-20T00:47:01;6.80;99.90
39099;DHT22;24844;52.380;7.018;2023-12-20T00:49:27;6.70;99.90
39099;DHT22;24844;52.380;7.018;2023-12-20T00:51:53;6.70;99.90
39099;DHT22;24844;52.380;7.018;2023-12-20T00:54:18;6.40;99.90
39099;DHT22;24844;52.380;7.018;2023-12-20T00:56:44;6.50;99.90
39099;DHT22;24844;52.380;7.018;2023-12-20T00:59:09;6.30;99.90
39099;DHT22;24844;52.380;7.018;2023-12-20T01:01:36;6.40;99.90
39099;DHT22;24844;52.380;7.018;2023-12-20T01:04:01;6.50;99.90
39099;DHT22;24844;52.380;7.018;2023-12-20T01:06:27;6.40;99.90
39099;DHT22;24844;52.380;7.018;2023-12-20T01:08:52;6.50;99.90
39099;DHT22;24844;52.380;7.018;2023-12-20T01:11:18;6.30;99.90
39099;DHT22;24844;52.380;7.018;2023-12-20T01:13:43;6.30;99.90
39099;DHT22;24844;52.380;7.018;2023-12-20T01:16:10;6.40;99.90
39099;DHT22;24844;52.380;7.018;2023-12-20T01:18:36;6.30;99.90
39099;DHT22;24844;52.380;7.018;2023-12-20T01:21:05;6.30;99.90
39099;DHT22;24844;52.380;7.018;2023-12-20T01:23:31;6.10;99.90
39099;DHT22;24844;52.380;7.018;2023-12-20T01:25:57;6.30;99.90
39099;DHT22;24844;52.380;7.018;2023-12-20T01:28:25;6.10;99.90
39099;DHT22;24844;52.380;7.018;2023-12-20T01:30:50;6.10;99.90
39099;DHT22;24844;52.380;7.018;2023-12-20T01:33:16;5.90;99.90
39099;DHT22;24844;52.380;7.018;2023-12-20T01:35:41;6.00;99.90
39099;DHT22;24844;52.380;7.018;2023-12-20T01:38:07;6.00;99.90
39099;DHT22;24844;52.380;7.018;2023-12-20T01:40:32;6.00;99.90
39099;DHT22;24844;52.380;7.018;2023-12-20T01:43:02;5.90;99.90
39099;DHT22;24844;52.380;7.018;2023-12-20T01:45:28;6.10;99.90
39099;DHT22;24844;52.380;7.018;2023-12-20T01:47:55;5.90;99.90
39099;DHT22;24844;52.380;7.018;2023-12-20T01:50:21;6.20;99.90
39099;DHT22;24844;52.380;7.018;2023-12-20T01:52:47;5.90;99.90
39099;DHT22;24844;52.380;7.018;2023-12-20T01:55:13;6.20;99.90
39099;DHT22;24844;52.380;7.018;2023-12-20T01:57:43;6.00;99.90
39099;DHT22;24844;52.380;7.018;2023-12-20T02:00:11;6.10;99.90
39099;DHT22;24844;52.380;7.018;2023-12-20T02:02:39;6.30;99.90
39099;DHT22;24844;52.380;7.018;2023-12-20T02:05:05;6.30;99.90
39099;DHT22;24844;52.380;7.018;2023-12-20T02:07:31;6.30;99.90
39099;DHT22;24844;52.380;7.018;2023-12-20T02:09:57;6.20;99.90
39099;DHT22;24844;52.380;7.018;2023-12-20T02:12:23;6.10;99.90
39099;DHT22;24844;52.380;7.018;2023-12-20T02:14:49;6.30;99.90
39099;DHT22;24844;52.380;7.018;2023-12-20T02:17:15;6.10;99.90
39099;DHT22;24844;52.380;7.018;2023-12-20T02:19:41;6.40;99.90
39099;DHT22;24844;52.380;7.018;2023-12-20T02:22:10;6.30;99.90
39099;DHT22;24844;52.380;7.018;2023-12-20T02:24:36;6.10;99.90
39099;DHT22;24844;52.380;7.018;2023-12-20T02:27:02;6.20;99.90
39099;DHT22;24844;52.380;7.018;2023-12-20T02:29:28;6.30;99.90
39099;DHT22;24844;52.380;7.018;2023-12-20T02:31:54;6.30;99.90
39099;DHT22;24844;52.380;7.018;2023-12-20T02:34:19;6.10;99.90
39099;DHT22;24844;52.380;7.018;2023-12-20T02:36:45;6.20;99.90
39099;DHT22;24844;52.380;7.018;2023-12-20T02:39:10;6.00;99.90
39099;DHT22;24844;52.380;7.018;2023-12-20T02:41:36;5.90;99.90
39099;DHT22;24844;52.380;7.018;2023-12-20T02:44:03;5.70;99.90
39099;DHT22;24844;52.380;7.018;2023-12-20T02:46:28;6.20;99.90
39099;DHT22;24844;52.380;7.018;2023-12-20T02:48:54;6.00;99.90
39099;DHT22;24844;52.380;7.018;2023-12-20T02:51:19;5.80;99.90
39099;DHT22;24844;52.380;7.018;2023-12-20T02:53:45;6.00;99.90
39099;DHT22;24844;52.380;7.018;2023-12-20T02:56:10;6.00;99.90
39099;DHT22;24844;52.380;7.018;2023-12-20T02:58:36;6.20;99.90
39099;DHT22;24844;52.380;7.018;2023-12-20T03:01:01;6.10;99.90
39099;DHT22;24844;52.380;7.018;2023-12-20T03:03:27;6.10;99.90
39099;DHT22;24844;52.380;7.018;2023-12-20T03:05:53;6.20;99.90
39099;DHT22;24844;52.380;7.018;2023-12-20T03:08:18;6.20;99.90
39099;DHT22;24844;52.380;7.018;2023-12-20T03:10:44;6.00;99.90
39099;DHT22;24844;52.380;7.018;2023-12-20T03:13:09;6.10;99.90
39099;DHT22;24844;52.380;7.018;2023-12-20T03:15:35;6.10;99.90
39099;DHT22;24844;52.380;7.018;2023-12-20T03:18:01;6.30;99.90
39099;DHT22;24844;52.380;7.018;2023-12-20T03:20:27;6.10;99.90
39099;DHT22;24844;52.380;7.018;2023-12-20T03:22:52;6.30;99.90
39099;DHT22;24844;52.380;7.018;2023-12-20T03:25:18;6.10;99.90
39099;DHT22;24844;52.380;7.018;2023-12-20T03:27:43;6.00;99.90
39099;DHT22;24844;52.380;7.018;2023-12-20T03:30:09;6.40;99.90
39099;DHT22;24844;52.380;7.018;2023-12-20T03:32:35;6.30;99.90
39099;DHT22;24844;52.380;7.018;2023-12-20T03:35:00;6.50;99.90
39099;DHT22;24844;52.380;7.018;2023-12-20T03:37:27;6.10;99.90
39099;DHT22;24844;52.380;7.018;2023-12-20T03:39:52;6.30;99.90
39099;DHT22;24844;52.380;7.018;2023-12-20T03:42:18;6.40;99.90
39099;DHT22;24844;52.380;7.018;2023-12-20T03:44:43;6.20;99.90
39099;DHT22;24844;52.380;7.018;2023-12-20T03:47:09;6.50;99.90
39099;DHT22;24844;52.380;7.018;2023-12-20T03:49:34;6.30;99.90
39099;DHT22;24844;52.380;7.018;2023-12-20T03:52:02;6.40;99.90
39099;DHT22;24844;52.380;7.018;2023-12-20T03:54:28;6.70;99.90
39099;DHT22;24844;52.380;7.018;2023-12-20T03:56:54;6.50;99.90
39099;DHT22;24844;52.380;7.018;2023-12-20T03:59:19;6.20;99.90
39099;DHT22;24844;52.380;7.018;2023-12-20T04:01:45;6.40;99.90
39099;DHT22;24844;52.380;7.018;2023-12-20T04:04:11;6.40;99.90
39099;DHT22;24844;52.380;7.018;2023-12-20T04:06:37;6.20;99.90
39099;DHT22;24844;52.380;7.018;2023-12-20T04:09:03;6.40;99.90
39099;DHT22;24844;52.380;7.018;2023-12-20T04:11:28;6.20;99.90
39099;DHT22;24844;52.380;7.018;2023-12-20T04:13:54;6.40;99.90
39099;DHT22;24844;52.380;7.018;2023-12-20T04:16:19;6.30;99.90
39099;DHT22;24844;52.380;7.018;2023-12-20T04:18:45;6.90;99.90
39099;DHT22;24844;52.380;7.018;2023-12-20T04:21:10;6.70;99.90
39099;DHT22;24844;52.380;7.018;2023-12-20T04:23:36;6.70;99.90
39099;DHT22;24844;52.380;7.018;2023-12-20T04:26:02;6.70;99.90
39099;DHT22;24844;52.380;7.018;2023-12-20T04:28:27;7.20;99.90
39099;DHT22;24844;52.380;7.018;2023-12-20T04:30:55;6.50;99.90
39099;DHT22;24844;52.380;7.018;2023-12-20T04:33:21;6.50;99.90
39099;DHT22;24844;52.380;7.018;2023-12-20T04:35:47;6.60;99.90
39099;DHT22;24844;52.380;7.018;2023-12-20T04:38:12;6.60;99.90
39099;DHT22;24844;52.380;7.018;2023-12-20T04:40:38;6.60;99.90
39099;DHT22;24844;52.380;7.018;2023-12-20T04:43:06;6.80;99.90
39099;DHT22;24844;52.380;7.018;2023-12-20T04:45:32;7.00;99.90
39099;DHT22;24844;52.380;7.018;2023-12-20T04:47:57;6.50;99.90
39099;DHT22;24844;52.380;7.018;2023-12-20T04:50:23;6.90;99.90
39099;DHT22;24844;52.380;7.018;2023-12-20T04:52:49;6.60;99.90
39099;DHT22;24844;52.380;7.018;2023-12-20T04:55:14;6.70;99.90
39099;DHT22;24844;52.380;7.018;2023-12-20T04:57:40;6.80;99.90
39099;DHT22;24844;52.380;7.018;2023-12-20T05:00:06;6.60;99.90
39099;DHT22;24844;52.380;7.018;2023-12-20T05:02:34;6.40;99.90
39099;DHT22;24844;52.380;7.018;2023-12-20T05:04:59;6.30;99.90
39099;DHT22;24844;52.380;7.018;2023-12-20T05:07:25;6.70;99.90
39099;DHT22;24844;52.380;7.018;2023-12-20T05:09:50;6.50;99.90
39099;DHT22;24844;52.380;7.018;2023-12-20T05:12:16;6.60;99.90
39099;DHT22;24844;52.380;7.018;2023-12-20T05:14:41;6.60;99.90
39099;DHT22;24844;52.380;7.018;2023-12-20T05:17:07;6.60;99.90
39099;DHT22;24844;52.380;7.018;2023-12-20T05:19:32;6.60;99.90
39099;DHT22;24844;52.380;7.018;2023-12-20T05:22:03;6.70;99.90
39099;DHT22;24844;52.380;7.018;2023-12-20T05:24:29;6.80;99.90
39099;DHT22;24844;52.380;7.018;2023-12-20T05:26:54;6.70;99.90
39099;DHT22;24844;52.380;7.018;2023-12-20T05:29:20;6.60;99.90
39099;DHT22;24844;52.380;7.018;2023-12-20T05:31:46;6.70;99.90
39099;DHT22;24844;52.380;7.018;2023-12-20T05:34:11;6.50;99.90
39099;DHT22;24844;52.380;7.018;2023-12-20T05:36:37;6.80;99.90
39099;DHT22;24844;52.380;7.018;2023-12-20T05:39:04;6.90;99.90
39099;DHT22;24844;52.380;7.018;2023-12-20T05:41:30;7.00;99.90
39099;DHT22;24844;52.380;7.018;2023-12-20T05:43:56;7.00;99.90
39099;DHT22;24844;52.380;7.018;2023-12-20T05:46:23;6.90;99.90
39099;DHT22;24844;52.380;7.018;2023-12-20T05:48:49;6.90;99.90
39099;DHT22;24844;52.380;7.018;2023-12-20T05:51:15;7.10;99.90
39099;DHT22;24844;52.380;7.018;2023-12-20T05:53:41;6.80;99.90
39099;DHT22;24844;52.380;7.018;2023-12-20T05:56:06;6.80;99.90
39099;DHT22;24844;52.380;7.018;2023-12-20T05:58:33;6.80;99.90
39099;DHT22;24844;52.380;7.018;2023-12-20T06:00:59;6.60;99.90
39099;DHT22;24844;52.380;7.018;2023-12-20T06:03:24;6.90;99.90
39099;DHT22;24844;52.380;7.018;2023-12-20T06:05:50;6.80;99.90
39099;DHT22;24844;52.380;7.018;2023-12-20T06:08:16;6.70;99.90
39099;DHT22;24844;52.380;7.018;2023-12-20T06:10:41;6.90;99.90
39099;DHT22;24844;52.380;7.018;2023-12-20T06:13:07;6.80;99.90
39099;DHT22;24844;52.380;7.018;2023-12-20T06:15:33;6.90;99.90
39099;DHT22;24844;52.380;7.018;2023-12-20T06:17:58;6.70;99.90
39099;DHT22;24844;52.380;7.018;2023-12-20T06:20:24;6.90;99.90
39099;DHT22;24844;52.380;7.018;2023-12-20T06:22:50;6.70;99.90
39099;DHT22;24844;52.380;7.018;2023-12-20T06:25:16;6.80;99.90
39099;DHT22;24844;52.380;7.018;2023-12-20T06:27:41;6.80;99.90
39099;DHT22;24844;52.380;7.018;2023-12-20T06:30:07;6.90;99.90
39099;DHT22;24844;52.380;7.018;2023-12-20T06:32:34;6.90;99.90
39099;DHT22;24844;52.380;7.018;2023-12-20T06:35:00;7.00;99.90
39099;DHT22;24844;52.380;7.018;2023-12-20T06:37:26;7.00;99.90
39099;DHT22;24844;52.380;7.018;2023-12-20T06:39:51;6.90;99.90
39099;DHT22;24844;52.380;7.018;2023-12-20T06:42:17;7.10;99.90
39099;DHT22;24844;52.380;7.018;2023-12-20T06:44:43;7.00;99.90
39099;DHT22;24844;52.380;7.018;2023-12-20T06:47:08;7.00;99.90
39099;DHT22;24844;52.380;7.018;2023-12-20T06:49:34;6.90;99.90
39099;DHT22;24844;52.380;7.018;2023-12-20T06:51:59;7.10;99.90
39099;DHT22;24844;52.380;7.018;2023-12-20T06:54:25;7.20;99.90
39099;DHT22;24844;52.380;7.018;2023-12-20T06:56:50;7.10;99.90
39099;DHT22;24844;52.380;7.018;2023-12-20T06:59:16;7.10;99.90
39099;DHT22;24844;52.380;7.018;2023-12-20T07:01:41;7.10;99.90
39099;DHT22;24844;52.380;7.018;2023-12-20T07:04:08;7.10;99.90
39099;DHT22;24844;52.380;7.018;2023-12-20T07:06:34;6.90;99.90
39099;DHT22;24844;52.380;7.018;2023-12-20T07:09:00;6.70;99.90
39099;DHT22;24844;52.380;7.018;2023-12-20T07:11:25;7.10;99.90
39099;DHT22;24844;52.380;7.018;2023-12-20T07:13:51;7.00;99.90
39099;DHT22;24844;52.380;7.018;2023-12-20T07:16:17;7.00;99.90
39099;DHT22;24844;52.380;7.018;2023-12-20T07:18:42;7.30;99.90
39099;DHT22;24844;52.380;7.018;2023-12-20T07:21:08;7.10;99.90
39099;DHT22;24844;52.380;7.018;2023-12-20T07:23:34;6.80;99.90
39099;DHT22;24844;52.380;7.018;2023-12-20T07:25:59;7.00;99.90
39099;DHT22;24844;52.380;7.018;2023-12-20T07:28:25;7.30;99.90
39099;DHT22;24844;52.380;7.018;2023-12-20T07:30:50;7.20;99.90
39099;DHT22;24844;52.380;7.018;2023-12-20T07:33:16;7.20;99.90
39099;DHT22;24844;52.380;7.018;2023-12-20T07:35:41;6.90;99.90
39099;DHT22;24844;52.380;7.018;2023-12-20T07:38:07;7.00;99.90
39099;DHT22;24844;52.380;7.018;2023-12-20T07:40:33;7.10;99.90
39099;DHT22;24844;52.380;7.018;2023-12-20T07:42:58;6.90;99.90
39099;DHT22;24844;52.380;7.018;2023-12-20T07:45:24;7.10;99.90
39099;DHT22;24844;52.380;7.018;2023-12-20T07:47:49;6.90;99.90
39099;DHT22;24844;52.380;7.018;2023-12-20T07:50:16;7.10;99.90
39099;DHT22;24844;52.380;7.018;2023-12-20T07:52:41;6.80;99.90
39099;DHT22;24844;52.380;7.018;2023-12-20T07:55:07;7.10;99.90
39099;DHT22;24844;52.380;7.018;2023-12-20T07:57:33;7.20;99.90
39099;DHT22;24844;52.380;7.018;2023-12-20T07:59:58;7.30;99.90
39099;DHT22;24844;52.380;7.018;2023-12-20T08:02:24;6.90;99.90
39099;DHT22;24844;52.380;7.018;2023-12-20T08:04:49;7.00;99.90
39099;DHT22;24844;52.380;7.018;2023-12-20T08:07:15;7.20;99.90
39099;DHT22;24844;52.380;7.018;2023-12-20T08:09:40;7.00;99.90
39099;DHT22;24844;52.380;7.018;2023-12-20T08:12:06;6.90;99.90
39099;DHT22;24844;52.380;7.018;2023-12-20T08:14:32;7.20;99.90
39099;DHT22;24844;52.380;7.018;2023-12-20T08:16:57;7.10;99.90
39099;DHT22;24844;52.380;7.018;2023-12-20T08:19:23;7.20;99.90
39099;DHT22;24844;52.380;7.018;2023-12-20T08:21:48;7.20;99.90
39099;DHT22;24844;52.380;7.018;2023-12-20T08:24:14;7.00;99.90
39099;DHT22;24844;52.380;7.018;2023-12-20T08:26:39;7.00;99.90
39099;DHT22;24844;52.380;7.018;2023-12-20T08:29:06;7.10;99.90
39099;DHT22;24844;52.380;7.018;2023-12-20T08:31:31;7.30;99.90
39099;DHT22;24844;52.380;7.018;2023-12-20T08:33:57;7.20;99.90
39099;DHT22;24844;52.380;7.018;2023-12-20T08:36:22;7.30;99.90
39099;DHT22;24844;52.380;7.018;2023-12-20T08:38:49;7.10;99.90
39099;DHT22;24844;52.380;7.018;2023-12-20T08:41:15;7.20;99.90
39099;DHT22;24844;52.380;7.018;2023-12-20T08:43:40;7.50;99.90
39099;DHT22;24844;52.380;7.018;2023-12-20T08:46:06;7.50;99.90
39099;DHT22;24844;52.380;7.018;2023-12-20T08:48:31;7.30;99.90
39099;DHT22;24844;52.380;7.018;2023-12-20T08:50:57;7.40;99.90
39099;DHT22;24844;52.380;7.018;2023-12-20T08:53:23;7.40;99.90
39099;DHT22;24844;52.380;7.018;2023-12-20T08:55:48;7.10;99.90
39099;DHT22;24844;52.380;7.018;2023-12-20T08:58:14;7.20;99.90
39099;DHT22;24844;52.380;7.018;2023-12-20T09:00:40;7.10;99.90
39099;DHT22;24844;52.380;7.018;2023-12-20T09:03:05;7.20;99.90
39099;DHT22;24844;52.380;7.018;2023-12-20T09:05:31;7.60;99.90
39099;DHT22;24844;52.380;7.018;2023-12-20T09:07:57;7.40;99.90
39099;DHT22;24844;52.380;7.018;2023-12-20T09:10:22;7.10;99.90
39099;DHT22;24844;52.380;7.018;2023-12-20T09:12:50;7.50;99.90
39099;DHT22;24844;52.380;7.018;2023-12-20T09:15:16;7.70;99.90
39099;DHT22;24844;52.380;7.018;2023-12-20T09:17:41;7.60;99.90
39099;DHT22;24844;52.380;7.018;2023-12-20T09:20:07;7.60;99.90
39099;DHT22;24844;52.380;7.018;2023-12-20T09:22:34;7.60;99.90
39099;DHT22;24844;52.380;7.018;2023-12-20T09:25:00;7.50;99.90
39099;DHT22;24844;52.380;7.018;2023-12-20T09:27:25;7.40;99.90
39099;DHT22;24844;52.380;7.018;2023-12-20T09:29:51;7.60;99.90
39099;DHT22;24844;52.380;7.018;2023-12-20T09:32:18;7.70;99.90
39099;DHT22;24844;52.380;7.018;2023-12-20T09:34:46;7.60;99.90
39099;DHT22;24844;52.380;7.018;2023-12-20T09:37:12;7.60;99.90
39099;DHT22;24844;52.380;7.018;2023-12-20T09:39:38;7.60;99.90
39099;DHT22;24844;52.380;7.018;2023-12-20T09:42:04;7.80;99.90
39099;DHT22;24844;52.380;7.018;2023-12-20T09:44:31;7.80;99.90
39099;DHT22;24844;52.380;7.018;2023-12-20T09:46:57;7.80;99.90
39099;DHT22;24844;52.380;7.018;2023-12-20T09:49:23;7.80;99.90
39099;DHT22;24844;52.380;7.018;2023-12-20T09:51:50;7.80;99.90
39099;DHT22;24844;52.380;7.018;2023-12-20T09:54:18;7.70;99.90
39099;DHT22;24844;52.380;7.018;2023-12-20T09:56:44;7.80;99.90
39099;DHT22;24844;52.380;7.018;2023-12-20T09:59:10;7.90;99.90
39099;DHT22;24844;52.380;7.018;2023-12-20T10:01:35;7.80;99.90
39099;DHT22;24844;52.380;7.018;2023-12-20T10:04:05;7.90;99.90
39099;DHT22;24844;52.380;7.018;2023-12-20T10:06:37;7.90;99.90
39099;DHT22;24844;52.380;7.018;2023-12-20T10:09:02;8.10;99.90
39099;DHT22;24844;52.380;7.018;2023-12-20T10:11:29;8.10;99.90
39099;DHT22;24844;52.380;7.018;2023-12-20T10:13:59;7.90;99.90
39099;DHT22;24844;52.380;7.018;2023-12-20T10:16:28;8.00;99.90
39099;DHT22;24844;52.380;7.018;2023-12-20T10:18:54;8.10;99.90
39099;DHT22;24844;52.380;7.018;2023-12-20T10:21:21;7.90;99.90
39099;DHT22;24844;52.380;7.018;2023-12-20T10:23:47;8.00;99.90
39099;DHT22;24844;52.380;7.018;2023-12-20T10:26:20;7.80;99.90
39099;DHT22;24844;52.380;7.018;2023-12-20T10:28:49;7.70;99.90
39099;DHT22;24844;52.380;7.018;2023-12-20T10:31:31;8.00;99.90
39099;DHT22;24844;52.380;7.018;2023-12-20T10:33:58;7.90;99.90
39099;DHT22;24844;52.380;7.018;2023-12-20T10:36:34;8.10;99.90
39099;DHT22;24844;52.380;7.018;2023-12-20T10:39:01;8.20;99.90
39099;DHT22;24844;52.380;7.018;2023-12-20T10:41:30;8.10;99.90
39099;DHT22;24844;52.380;7.018;2023-12-20T10:44:00;7.90;99.90
39099;DHT22;24844;52.380;7.018;2023-12-20T10:46:27;8.10;99.90
39099;DHT22;24844;52.380;7.018;2023-12-20T10:48:54;8.10;99.90
39099;DHT22;24844;52.380;7.018;2023-12-20T10:51:20;8.00;99.90
39099;DHT22;24844;52.380;7.018;2023-12-20T10:53:52;8.20;99.90
39099;DHT22;24844;52.380;7.018;2023-12-20T10:56:18;8.10;99.90
39099;DHT22;24844;52.380;7.018;2023-12-20T10:58:45;8.10;99.90
39099;DHT22;24844;52.380;7.018;2023-12-20T11:01:17;8.20;99.90
39099;DHT22;24844;52.380;7.018;2023-12-20T11:03:50;8.30;99.90
39099;DHT22;24844;52.380;7.018;2023-12-20T11:06:27;8.30;99.90
39099;DHT22;24844;52.380;7.018;2023-12-20T11:09:00;8.30;99.90
39099;DHT22;24844;52.380;7.018;2023-12-20T11:11:52;8.20;99.90
39099;DHT22;24844;52.380;7.018;2023-12-20T11:14:40;8.20;99.90
39099;DHT22;24844;52.380;7.018;2023-12-20T11:17:10;8.20;99.90
39099;DHT22;24844;52.380;7.018;2023-12-20T11:22:29;7.80;99.90
39099;DHT22;24844;52.380;7.018;2023-12-20T11:24:59;7.90;99.90
39099;DHT22;24844;52.380;7.018;2023-12-20T11:27:27;7.70;99.90
39099;DHT22;24844;52.380;7.018;2023-12-20T11:29:55;7.80;99.90
39099;DHT22;24844;52.380;7.018;2023-12-20T11:37:36;7.70;99.90
39099;DHT22;24844;52.380;7.018;2023-12-20T11:40:07;7.40;99.90
39099;DHT22;24844;52.380;7.018;2023-12-20T11:42:45;7.40;99.90
39099;DHT22;24844;52.380;7.018;2023-12-20T11:45:13;7.50;99.90
39099;DHT22;24844;52.380;7.018;2023-12-20T11:47:43;7.40;99.90
39099;DHT22;24844;52.380;7.018;2023-12-20T11:50:10;7.50;99.90
39099;DHT22;24844;52.380;7.018;2023-12-20T11:52:36;7.60;99.90
39099;DHT22;24844;52.380;7.018;2023-12-20T11:55:02;7.60;99.90
39099;DHT22;24844;52.380;7.018;2023-12-20T11:57:29;7.50;99.90
39099;DHT22;24844;52.380;7.018;2023-12-20T11:59:55;7.50;99.90
39099;DHT22;24844;52.380;7.018;2023-12-20T12:02:21;7.20;99.90
39099;DHT22;24844;52.380;7.018;2023-12-20T12:04:48;7.50;99.90
39099;DHT22;24844;52.380;7.018;2023-12-20T12:07:14;7.40;99.90
39099;DHT22;24844;52.380;7.018;2023-12-20T12:09:39;7.60;99.90
39099;DHT22;24844;52.380;7.018;2023-12-20T12:12:06;7.70;99.90
39099;DHT22;24844;52.380;7.018;2023-12-20T12:14:32;7.60;99.90
39099;DHT22;24844;52.380;7.018;2023-12-20T12:16:57;7.50;99.90
39099;DHT22;24844;52.380;7.018;2023-12-20T12:19:24;7.60;99.90
39099;DHT22;24844;52.380;7.018;2023-12-20T12:21:51;7.80;99.90
39099;DHT22;24844;52.380;7.018;2023-12-20T12:24:20;7.60;99.90
39099;DHT22;24844;52.380;7.018;2023-12-20T12:26:56;7.30;99.90
39099;DHT22;24844;52.380;7.018;2023-12-20T12:29:22;7.40;99.90
39099;DHT22;24844;52.380;7.018;2023-12-20T12:31:50;7.20;99.90
39099;DHT22;24844;52.380;7.018;2023-12-20T12:34:15;7.50;99.90
39099;DHT22;24844;52.380;7.018;2023-12-20T12:36:41;7.40;99.90
39099;DHT22;24844;52.380;7.018;2023-12-20T12:39:07;7.40;99.90
39099;DHT22;24844;52.380;7.018;2023-12-20T12:41:33;7.50;99.90
39099;DHT22;24844;52.380;7.018;2023-12-20T12:43:58;7.40;99.90
39099;DHT22;24844;52.380;7.018;2023-12-20T12:46:24;7.50;99.90
39099;DHT22;24844;52.380;7.018;2023-12-20T12:48:49;7.70;99.90
39099;DHT22;24844;52.380;7.018;2023-12-20T12:51:15;7.70;99.90
39099;DHT22;24844;52.380;7.018;2023-12-20T12:53:41;7.60;99.90
39099;DHT22;24844;52.380;7.018;2023-12-20T12:56:07;7.80;99.90
39099;DHT22;24844;52.380;7.018;2023-12-20T12:58:33;7.90;99.90
39099;DHT22;24844;52.380;7.018;2023-12-20T13:00:59;7.90;99.90
39099;DHT22;24844;52.380;7.018;2023-12-20T13:03:25;7.60;99.90
39099;DHT22;24844;52.380;7.018;2023-12-20T13:05:50;7.50;99.90
39099;DHT22;24844;52.380;7.018;2023-12-20T13:08:16;7.70;99.90
39099;DHT22;24844;52.380;7.018;2023-12-20T13:10:41;7.50;99.90
39099;DHT22;24844;52.380;7.018;2023-12-20T13:13:07;7.70;99.90
39099;DHT22;24844;52.380;7.018;2023-12-20T13:15:33;7.70;99.90
39099;DHT22;24844;52.380;7.018;2023-12-20T13:17:58;7.70;99.90
39099;DHT22;24844;52.380;7.018;2023-12-20T13:20:25;7.80;99.90
39099;DHT22;24844;52.380;7.018;2023-12-20T13:22:50;7.90;99.90
39099;DHT22;24844;52.380;7.018;2023-12-20T13:25:16;7.90;99.90
39099;DHT22;24844;52.380;7.018;2023-12-20T13:27:41;7.60;99.90
39099;DHT22;24844;52.380;7.018;2023-12-20T13:30:07;7.90;99.90
39099;DHT22;24844;52.380;7.018;2023-12-20T13:32:33;8.00;99.90
39099;DHT22;24844;52.380;7.018;2023-12-20T13:34:58;7.80;99.90
39099;DHT22;24844;52.380;7.018;2023-12-20T13:37:24;7.60;99.90
39099;DHT22;24844;52.380;7.018;2023-12-20T13:39:50;7.60;99.90
39099;DHT22;24844;52.380;7.018;2023-12-20T13:42:15;7.70;99.90
39099;DHT22;24844;52.380;7.018;2023-12-20T13:44:41;7.70;99.90
39099;DHT22;24844;52.380;7.018;2023-12-20T13:47:06;7.70;99.90
39099;DHT22;24844;52.380;7.018;2023-12-20T13:49:33;7.60;99.90
39099;DHT22;24844;52.380;7.018;2023-12-20T13:51:58;7.60;99.90
39099;DHT22;24844;52.380;7.018;2023-12-20T13:54:24;7.80;99.90
39099;DHT22;24844;52.380;7.018;2023-12-20T13:56:50;7.60;99.90
39099;DHT22;24844;52.380;7.018;2023-12-20T13:59:15;7.60;99.90
39099;DHT22;24844;52.380;7.018;2023-12-20T14:01:41;7.70;99.90
39099;DHT22;24844;52.380;7.018;2023-12-20T14:04:07;7.60;99.90
39099;DHT22;24844;52.380;7.018;2023-12-20T14:06:33;7.90;99.90
39099;DHT22;24844;52.380;7.018;2023-12-20T14:08:58;7.80;99.90
39099;DHT22;24844;52.380;7.018;2023-12-20T14:11:28;7.80;99.90
39099;DHT22;24844;52.380;7.018;2023-12-20T14:13:53;7.70;99.90
39099;DHT22;24844;52.380;7.018;2023-12-20T14:16:26;7.60;99.90
39099;DHT22;24844;52.380;7.018;2023-12-20T14:18:51;7.70;99.90
39099;DHT22;24844;52.380;7.018;2023-12-20T14:21:23;7.70;99.90
39099;DHT22;24844;52.380;7.018;2023-12-20T14:23:49;7.70;99.90
39099;DHT22;24844;52.380;7.018;2023-12-20T14:26:15;7.70;99.90
39099;DHT22;24844;52.380;7.018;2023-12-20T14:28:41;7.60;99.90
39099;DHT22;24844;52.380;7.018;2023-12-20T14:31:07;7.80;99.90
39099;DHT22;24844;52.380;7.018;2023-12-20T14:33:34;7.80;99.90
39099;DHT22;24844;52.380;7.018;2023-12-20T14:36:00;7.80;99.90
39099;DHT22;24844;52.380;7.018;2023-12-20T14:38:25;7.90;99.90
39099;DHT22;24844;52.380;7.018;2023-12-20T14:40:51;7.90;99.90
39099;DHT22;24844;52.380;7.018;2023-12-20T14:43:16;8.00;99.90
39099;DHT22;24844;52.380;7.018;2023-12-20T14:45:42;7.80;99.90
39099;DHT22;24844;52.380;7.018;2023-12-20T14:48:08;7.70;99.90
39099;DHT22;24844;52.380;7.018;2023-12-20T14:50:33;7.60;99.90
39099;DHT22;24844;52.380;7.018;2023-12-20T14:52:59;7.60;99.90
39099;DHT22;24844;52.380;7.018;2023-12-20T14:55:25;7.60;99.90
39099;DHT22;24844;52.380;7.018;2023-12-20T14:57:53;7.70;99.90
39099;DHT22;24844;52.380;7.018;2023-12-20T15:00:18;7.90;99.90
39099;DHT22;24844;52.380;7.018;2023-12-20T15:02:45;7.80;99.90
39099;DHT22;24844;52.380;7.018;2023-12-20T15:05:11;7.80;99.90
39099;DHT22;24844;52.380;7.018;2023-12-20T15:07:36;7.80;99.90
39099;DHT22;24844;52.380;7.018;2023-12-20T15:10:02;8.10;99.90
39099;DHT22;24844;52.380;7.018;2023-12-20T15:12:28;8.10;99.90
39099;DHT22;24844;52.380;7.018;2023-12-20T15:14:53;8.10;99.90
39099;DHT22;24844;52.380;7.018;2023-12-20T15:17:19;8.00;99.90
39099;DHT22;24844;52.380;7.018;2023-12-20T15:19:44;8.20;99.90
39099;DHT22;24844;52.380;7.018;2023-12-20T15:22:10;8.00;99.90
39099;DHT22;24844;52.380;7.018;2023-12-20T15:24:39;7.90;99.90
39099;DHT22;24844;52.380;7.018;2023-12-20T15:27:06;8.00;99.90
39099;DHT22;24844;52.380;7.018;2023-12-20T15:29:32;8.00;99.90
39099;DHT22;24844;52.380;7.018;2023-12-20T15:31:58;8.00;99.90
39099;DHT22;24844;52.380;7.018;2023-12-20T15:34:23;8.10;99.90
39099;DHT22;24844;52.380;7.018;2023-12-20T15:36:49;8.10;99.90
39099;DHT22;24844;52.380;7.018;2023-12-20T15:39:14;8.10;99.90
39099;DHT22;24844;52.380;7.018;2023-12-20T15:41:40;8.00;99.90
39099;DHT22;24844;52.380;7.018;2023-12-20T15:44:05;8.10;99.90
39099;DHT22;24844;52.380;7.018;2023-12-20T15:46:31;8.10;99.90